Terminal Aerodrome Forecast
Issued by NWS Tampa Bay Area, FL

Home | Current Version | Previous Version | Text Only | Print | Product List | Glossary On
Versions: 1 2 3 4 5 6 7 8 9 10 11 12 13 14 15
000
FTUS42 KTBW 200629 AAA
TAFFMY
TAF AMD
KFMY 200629Z 2006/2106 02012KT P6SM BKN010
      TEMPO 2006/2008 SCT010
     FM200800 02011KT P6SM SKC
     FM201500 06012KT P6SM SCT250
     FM202100 08010KT P6SM BKN050
     FM210100 07008KT P6SM BKN050 BKN080=

USA.gov is the U.S. government's official web portal to all federal, state and local government web resources and services.